Time;durP1;ratioP1;P1;durP2;ratioP2;P2;SDS_P1;SDS_P2;PMS_P1;PMS_P2;Temp;Humidity;BMP_temperature;BMP_pressure;BME280_temperature;BME280_humidity;BME280_pressure;Samples;Min_cycle;Max_cycle;Signal;HPM_P1;HPM_P2
2022/11/28 00:01:22;;;;;;;7.10;4.35;;;8.70;87.90;;;;;;5113420;28;20031;-73
2022/11/28 00:03:48;;;;;;;11.80;4.68;;;8.70;88.10;;;;;;5113337;28;20031;-73
2022/11/28 00:06:14;;;;;;;7.70;4.10;;;8.70;88.30;;;;;;5113403;28;20375;-72
2022/11/28 00:08:39;;;;;;;7.50;3.83;;;8.80;88.30;;;;;;5113141;28;20020;-73
2022/11/28 00:11:08;;;;;;;7.43;4.20;;;8.80;87.90;;;;;;5112087;28;20053;-72
2022/11/28 00:13:34;;;;;;;6.85;3.78;;;8.80;87.90;;;;;;5113184;28;20013;-73
2022/11/28 00:16:02;;;;;;;7.68;3.90;;;8.80;88.60;;;;;;5113282;28;20083;-73
2022/11/28 00:18:28;;;;;;;6.68;3.30;;;8.80;88.40;;;;;;5113137;28;20025;-72
2022/11/28 00:21:04;;;;;;;7.55;3.95;;;8.80;88.70;;;;;;5094929;28;20055;-72
2022/11/28 00:23:30;;;;;;;7.18;3.80;;;8.80;88.80;;;;;;5112112;28;20042;-72
2022/11/28 00:26:02;;;;;;;9.05;4.07;;;8.80;88.80;;;;;;5112011;28;20060;-73
2022/11/28 00:28:28;;;;;;;6.85;3.47;;;8.80;88.80;;;;;;5115729;28;20028;-73
2022/11/28 00:30:54;;;;;;;7.20;3.50;;;8.90;88.70;;;;;;5116752;28;20039;-73
2022/11/28 00:33:20;;;;;;;8.00;3.95;;;8.90;88.70;;;;;;5116789;28;20088;-73
2022/11/28 00:35:46;;;;;;;8.23;3.78;;;8.80;89.00;;;;;;5115699;28;20027;-72
2022/11/28 00:38:11;;;;;;;8.93;3.72;;;8.90;88.90;;;;;;5116690;28;20044;-72
2022/11/28 00:40:37;;;;;;;8.45;3.55;;;8.90;89.00;;;;;;5098720;28;20031;-73
2022/11/28 00:43:03;;;;;;;7.00;3.67;;;8.90;88.70;;;;;;5116601;28;20032;-73
2022/11/28 00:45:28;;;;;;;6.97;4.10;;;8.90;88.90;;;;;;5115612;28;20040;-72
2022/11/28 00:47:54;;;;;;;6.10;3.50;;;9.00;88.80;;;;;;5116513;28;20032;-73
2022/11/28 00:50:19;;;;;;;8.07;3.85;;;9.00;89.80;;;;;;5116381;28;20060;-73
2022/11/28 00:52:45;;;;;;;8.35;3.70;;;9.00;89.10;;;;;;5115556;28;20024;-73
2022/11/28 00:55:10;;;;;;;8.25;4.40;;;9.00;89.30;;;;;;5116344;28;20077;-73
2022/11/28 00:57:36;;;;;;;7.32;3.75;;;9.00;89.40;;;;;;5116290;28;20059;-73
2022/11/28 01:00:04;;;;;;;9.18;3.70;;;9.00;89.50;;;;;;5116277;28;20048;-73
2022/11/28 01:02:30;;;;;;;7.50;4.07;;;9.00;89.60;;;;;;5116202;28;20043;-73
2022/11/28 01:04:55;;;;;;;6.85;3.88;;;9.00;89.60;;;;;;5116145;28;20032;-73
2022/11/28 01:07:21;;;;;;;6.40;3.63;;;9.10;89.70;;;;;;5115218;28;20024;-73
2022/11/28 01:09:47;;;;;;;8.38;3.95;;;9.10;89.60;;;;;;5115001;28;20490;-73
2022/11/28 01:12:12;;;;;;;8.30;3.88;;;9.10;89.50;;;;;;5114978;28;20032;-73
2022/11/28 01:14:38;;;;;;;6.53;3.70;;;9.10;89.60;;;;;;5115992;28;20052;-73
2022/11/28 01:17:03;;;;;;;7.25;3.47;;;9.10;89.70;;;;;;5114887;28;20025;-73
2022/11/28 01:19:30;;;;;;;7.25;3.55;;;9.10;89.90;;;;;;5115904;28;20048;-73
2022/11/28 01:21:55;;;;;;;6.13;3.60;;;9.10;90.00;;;;;;5115605;28;20052;-73
2022/11/28 01:24:21;;;;;;;10.05;4.13;;;9.20;89.90;;;;;;5114929;28;20049;-73
2022/11/28 01:26:47;;;;;;;8.00;3.85;;;9.20;89.80;;;;;;5115762;28;20024;-73
2022/11/28 01:29:13;;;;;;;7.70;4.00;;;9.20;89.70;;;;;;5115643;28;20050;-73
2022/11/28 01:31:38;;;;;;;7.47;3.83;;;9.20;89.70;;;;;;5115670;28;20020;-72
2022/11/28 01:34:04;;;;;;;6.25;3.58;;;9.20;89.80;;;;;;5115686;28;20020;-73
2022/11/28 01:36:30;;;;;;;8.52;4.05;;;9.20;90.00;;;;;;5114590;28;20032;-73
2022/11/28 01:38:55;;;;;;;6.93;3.63;;;9.20;90.10;;;;;;5114755;28;20044;-72
2022/11/28 01:41:24;;;;;;;8.43;4.03;;;9.20;90.20;;;;;;5114595;28;20111;-73
2022/11/28 01:44:04;;;;;;;6.47;3.67;;;9.10;90.20;;;;;;5114352;28;20020;-72
2022/11/28 01:46:31;;;;;;;7.60;3.67;;;9.20;90.10;;;;;;5115322;28;20055;-73
2022/11/28 01:49:01;;;;;;;8.00;4.30;;;9.20;90.10;;;;;;5114358;28;20024;-73
2022/11/28 01:51:28;;;;;;;8.93;3.63;;;9.20;90.10;;;;;;5114221;28;20047;-73
2022/11/28 01:53:54;;;;;;;9.48;3.78;;;9.20;90.20;;;;;;5115228;28;20035;-73
2022/11/28 01:56:26;;;;;;;9.35;3.90;;;9.10;90.60;;;;;;5115190;28;20020;-73
2022/11/28 01:58:57;;;;;;;8.23;4.03;;;9.00;90.80;;;;;;5115184;28;20043;-73
2022/11/28 02:01:24;;;;;;;8.05;4.05;;;9.00;90.70;;;;;;5114066;28;20342;-73
2022/11/28 02:03:50;;;;;;;8.82;4.00;;;9.10;90.60;;;;;;5113979;28;20028;-73
2022/11/28 02:06:20;;;;;;;7.88;3.95;;;9.10;90.60;;;;;;5114951;28;20024;-73
2022/11/28 02:08:50;;;;;;;10.23;4.07;;;9.10;90.60;;;;;;5114874;28;20020;-73
2022/11/28 02:11:54;;;;;;;7.97;4.30;;;9.10;90.70;;;;;;5113772;28;20039;-73
2022/11/28 02:14:56;;;;;;;7.90;4.20;;;9.10;90.80;;;;;;5090452;28;20064;-73
2022/11/28 02:18:13;;;;;;;7.00;3.70;;;9.10;90.80;;;;;;5115010;28;20027;-72
2022/11/28 02:20:41;;;;;;;9.13;3.63;;;9.10;91.20;;;;;;5032491;28;20276;-73
2022/11/28 02:23:35;;;;;;;4.53;2.22;;;9.00;91.50;;;;;;5016333;28;20096;-72
2022/11/28 02:26:06;;;;;;;6.82;3.30;;;8.90;92.00;;;;;;5087925;28;20036;-72
2022/11/28 02:29:02;;;;;;;3.33;1.98;;;8.90;92.00;;;;;;5114552;28;20054;-72
2022/11/28 02:31:49;;;;;;;8.10;2.92;;;8.90;92.50;;;;;;5114483;28;20024;-72
2022/11/28 02:34:37;;;;;;;5.95;2.75;;;8.90;92.80;;;;;;5113515;28;20098;-72
2022/11/28 02:37:07;;;;;;;4.88;2.35;;;8.90;93.00;;;;;;5114587;28;20012;-72
2022/11/28 02:39:50;;;;;;;5.45;2.30;;;8.90;93.10;;;;;;5114397;28;20027;-72
2022/11/28 02:42:42;;;;;;;5.28;2.40;;;8.90;93.20;;;;;;5114359;28;20169;-72
2022/11/28 02:45:45;;;;;;;5.32;3.25;;;8.90;93.40;;;;;;5114480;28;20055;-72
2022/11/28 02:48:21;;;;;;;5.97;2.90;;;8.90;93.60;;;;;;5114295;28;20032;-72
2022/11/28 02:51:25;;;;;;;5.50;2.90;;;8.80;93.70;;;;;;5113162;28;20032;-72
2022/11/28 02:53:52;;;;;;;5.43;2.97;;;8.80;93.70;;;;;;5069175;28;20036;-72
2022/11/28 02:56:18;;;;;;;6.15;3.10;;;8.80;93.70;;;;;;5096328;28;20390;-72
2022/11/28 02:58:43;;;;;;;7.03;3.03;;;8.90;93.70;;;;;;5114024;28;20046;-72
2022/11/28 03:01:18;;;;;;;7.55;3.58;;;8.90;93.70;;;;;;5113988;28;20028;-72
2022/11/28 03:04:02;;;;;;;6.85;3.10;;;8.90;93.60;;;;;;5114008;28;20028;-72
2022/11/28 03:07:06;;;;;;;9.40;3.22;;;8.90;93.70;;;;;;5112919;28;20024;-72
2022/11/28 03:09:51;;;;;;;6.45;3.78;;;8.90;93.80;;;;;;5113784;28;20363;-72
2022/11/28 03:12:22;;;;;;;8.38;3.83;;;8.90;93.90;;;;;;5112919;28;20020;-72
2022/11/28 03:15:06;;;;;;;6.57;3.83;;;8.90;93.90;;;;;;5113840;28;20020;-72
2022/11/28 03:17:40;;;;;;;6.75;4.05;;;8.90;93.90;;;;;;5113939;28;20024;-72
2022/11/28 03:20:14;;;;;;;7.80;3.95;;;8.90;93.80;;;;;;5113767;28;20020;-73
2022/11/28 03:22:56;;;;;;;9.43;4.25;;;8.90;93.80;;;;;;5113535;28;20096;-72
2022/11/28 03:25:40;;;;;;;5.90;2.95;;;8.90;93.90;;;;;;5113845;28;20032;-72
2022/11/28 03:28:10;;;;;;;6.88;3.55;;;8.90;94.00;;;;;;5113808;28;20028;-72
2022/11/28 03:30:44;;;;;;;8.70;3.58;;;8.90;94.10;;;;;;5113573;28;20032;-72
2022/11/28 03:33:13;;;;;;;7.47;3.83;;;8.90;94.10;;;;;;5113610;28;20075;-72
2022/11/28 03:35:47;;;;;;;6.32;3.67;;;8.80;94.20;;;;;;5113562;28;20470;-72
2022/11/28 03:38:23;;;;;;;6.25;3.63;;;8.80;94.30;;;;;;5113665;28;20039;-72
2022/11/28 03:40:54;;;;;;;7.63;3.78;;;8.80;94.30;;;;;;5113515;28;20028;-73
2022/11/28 03:43:26;;;;;;;6.45;2.97;;;8.80;94.30;;;;;;5113504;28;20024;-72
2022/11/28 03:45:56;;;;;;;7.10;3.88;;;8.80;94.30;;;;;;5113504;28;20032;-72
2022/11/28 03:48:25;;;;;;;6.05;3.33;;;8.80;94.40;;;;;;5112510;28;20020;-72
2022/11/28 03:51:07;;;;;;;7.10;2.95;;;8.80;94.40;;;;;;5113360;28;20044;-72
2022/11/28 03:54:01;;;;;;;6.87;2.97;;;8.80;94.50;;;;;;5113436;28;20024;-73
2022/11/28 03:56:43;;;;;;;6.32;3.53;;;8.80;94.50;;;;;;5113406;28;20023;-72
2022/11/28 03:59:25;;;;;;;5.97;3.10;;;8.80;94.50;;;;;;5113509;28;20031;-73
2022/11/28 04:02:14;;;;;;;;;;;8.80;94.60;;;;;;5113979;28;20072;-72
2022/11/28 04:05:01;;;;;;;5.35;2.80;;;8.80;94.60;;;;;;5108097;28;19904;-72
2022/11/28 04:07:49;;;;;;;6.13;2.78;;;8.70;94.80;;;;;;5117283;28;20035;-72
2022/11/28 04:10:27;;;;;;;5.90;3.13;;;8.70;94.90;;;;;;5117366;28;20035;-72
2022/11/28 04:13:07;;;;;;;7.75;3.03;;;8.70;94.90;;;;;;5117248;28;20024;-72
2022/11/28 04:15:53;;;;;;;4.28;2.45;;;8.70;94.90;;;;;;5117331;28;20019;-73
2022/11/28 04:18:34;;;;;;;4.72;2.80;;;8.70;95.00;;;;;;5117146;28;20024;-72
2022/11/28 04:21:11;;;;;;;4.70;2.65;;;8.70;95.00;;;;;;5117004;28;20074;-72
2022/11/28 04:23:40;;;;;;;5.05;2.85;;;8.70;95.10;;;;;;5116026;28;20032;-73
2022/11/28 04:26:12;;;;;;;5.93;2.92;;;8.70;95.20;;;;;;5116984;28;20020;-73
2022/11/28 04:28:40;;;;;;;6.28;2.75;;;8.70;95.20;;;;;;5115928;28;20020;-72
2022/11/28 04:31:07;;;;;;;6.55;2.80;;;8.70;95.20;;;;;;5116805;28;20054;-73
2022/11/28 04:33:37;;;;;;;4.65;2.58;;;8.70;95.20;;;;;;5115914;28;20049;-72
2022/11/28 04:36:05;;;;;;;6.60;3.47;;;8.70;95.20;;;;;;5116815;28;20099;-73
2022/11/28 04:38:32;;;;;;;6.40;2.97;;;8.70;95.20;;;;;;5116664;28;20020;-72
2022/11/28 04:41:12;;;;;;;7.22;2.72;;;8.60;95.20;;;;;;5116663;28;20024;-73
2022/11/28 04:43:42;;;;;;;5.85;3.08;;;8.70;95.30;;;;;;5116839;28;20106;-72
2022/11/28 04:46:17;;;;;;;6.50;2.67;;;8.70;95.30;;;;;;5116627;28;20043;-73
2022/11/28 04:48:43;;;;;;;5.05;2.40;;;8.70;95.40;;;;;;5116581;28;20080;-72
2022/11/28 04:51:17;;;;;;;7.15;3.75;;;8.70;95.40;;;;;;5115384;28;20020;-73
2022/11/28 04:54:01;;;;;;;5.28;2.80;;;8.60;95.40;;;;;;5116478;28;20020;-73
2022/11/28 04:56:42;;;;;;;5.85;3.22;;;8.60;95.40;;;;;;5116444;28;20080;-73
2022/11/28 04:59:11;;;;;;;4.28;2.70;;;8.70;95.40;;;;;;5115350;28;20020;-73
2022/11/28 05:01:39;;;;;;;6.55;2.58;;;8.70;95.50;;;;;;5116480;28;20034;-72
2022/11/28 05:04:05;;;;;;;4.28;2.80;;;8.60;95.50;;;;;;5116252;28;20028;-72
2022/11/28 05:06:33;;;;;;;5.40;3.30;;;8.60;95.50;;;;;;5116204;28;20047;-72
2022/11/28 05:08:59;;;;;;;5.93;3.03;;;8.60;95.60;;;;;;5116065;28;20062;-73
2022/11/28 05:11:26;;;;;;;4.93;2.53;;;8.70;95.60;;;;;;5116005;28;20028;-73
2022/11/28 05:13:52;;;;;;;5.50;2.58;;;8.70;95.50;;;;;;5114853;28;20052;-73
2022/11/28 05:16:17;;;;;;;5.60;3.20;;;8.60;95.50;;;;;;5098173;28;20029;-73
2022/11/28 05:18:43;;;;;;;5.75;2.60;;;8.70;95.60;;;;;;5115957;28;20075;-72
2022/11/28 05:21:10;;;;;;;6.15;2.65;;;8.60;95.50;;;;;;5115740;28;20453;-73
2022/11/28 05:23:41;;;;;;;8.40;3.75;;;8.60;95.60;;;;;;5115881;28;20043;-73
2022/11/28 05:26:08;;;;;;;5.78;2.78;;;8.60;95.60;;;;;;5115970;28;20021;-72
2022/11/28 05:28:33;;;;;;;6.85;3.42;;;8.60;95.70;;;;;;5115696;28;20028;-73
2022/11/28 05:31:01;;;;;;;6.80;3.70;;;8.60;95.60;;;;;;5115538;28;20056;-73
2022/11/28 05:33:29;;;;;;;7.28;3.13;;;8.60;95.70;;;;;;5115687;28;20020;-72
2022/11/28 05:35:55;;;;;;;4.45;2.92;;;8.60;95.70;;;;;;5114674;28;20024;-72
2022/11/28 05:38:21;;;;;;;6.30;3.47;;;8.60;95.70;;;;;;5115701;28;20031;-73
2022/11/28 05:40:47;;;;;;;5.55;3.45;;;8.60;95.70;;;;;;5115530;28;20029;-72
2022/11/28 05:43:12;;;;;;;5.55;3.25;;;8.60;95.80;;;;;;5115465;28;20032;-72
2022/11/28 05:45:40;;;;;;;5.82;3.30;;;8.60;95.80;;;;;;5114385;28;20043;-73
2022/11/28 05:48:05;;;;;;;6.47;3.50;;;8.60;95.90;;;;;;5115379;28;20083;-73
2022/11/28 05:50:31;;;;;;;5.53;3.03;;;8.60;96.20;;;;;;5115224;28;20036;-73
2022/11/28 05:52:57;;;;;;;5.07;3.17;;;8.60;95.80;;;;;;5115260;28;20051;-73
2022/11/28 05:55:22;;;;;;;6.68;4.03;;;8.60;95.90;;;;;;5114235;28;20027;-73
2022/11/28 05:57:48;;;;;;;6.15;3.55;;;8.60;95.90;;;;;;5115110;28;20027;-73
2022/11/28 06:00:14;;;;;;;7.75;3.28;;;8.60;95.90;;;;;;5115128;28;20040;-73
2022/11/28 06:02:40;;;;;;;6.68;3.08;;;8.60;95.90;;;;;;5115061;28;20032;-73
2022/11/28 06:05:06;;;;;;;5.93;3.85;;;8.60;95.90;;;;;;5114165;28;20031;-73
2022/11/28 06:07:31;;;;;;;7.10;3.15;;;8.60;95.90;;;;;;5114010;28;20062;-72
2022/11/28 06:09:57;;;;;;;7.32;3.88;;;8.60;95.90;;;;;;5114872;28;20040;-72
2022/11/28 06:12:22;;;;;;;5.93;3.65;;;8.60;95.90;;;;;;5115045;28;20479;-73
2022/11/28 06:14:48;;;;;;;8.45;3.30;;;8.60;95.80;;;;;;5114799;28;20044;-73
2022/11/28 06:17:14;;;;;;;6.47;3.50;;;8.60;95.80;;;;;;5114928;28;20046;-73
2022/11/28 06:19:40;;;;;;;9.73;4.03;;;8.60;95.80;;;;;;5114727;28;20039;-73
2022/11/28 06:22:06;;;;;;;6.40;3.72;;;8.60;95.80;;;;;;5113496;28;20055;-73
2022/11/28 06:24:31;;;;;;;6.85;3.53;;;8.60;95.80;;;;;;5113933;28;20100;-72
2022/11/28 06:26:57;;;;;;;7.32;3.40;;;8.60;95.70;;;;;;5114363;28;20087;-73
2022/11/28 06:29:23;;;;;;;6.40;3.88;;;8.60;95.70;;;;;;5114623;28;20054;-73
2022/11/28 06:31:48;;;;;;;7.57;4.18;;;8.60;95.80;;;;;;5113656;28;20042;-73
2022/11/28 06:34:14;;;;;;;7.88;3.72;;;8.60;95.80;;;;;;5113526;28;20028;-73
2022/11/28 06:36:39;;;;;;;6.82;4.35;;;8.70;95.70;;;;;;5114434;28;20028;-73
2022/11/28 06:39:05;;;;;;;9.57;4.28;;;8.70;95.50;;;;;;5114386;28;20020;-73
2022/11/28 06:41:31;;;;;;;7.43;3.75;;;8.70;95.50;;;;;;5114424;28;20035;-73
2022/11/28 06:43:56;;;;;;;8.32;3.67;;;8.70;95.50;;;;;;5114309;28;20058;-73
2022/11/28 06:46:22;;;;;;;8.65;4.43;;;8.70;95.40;;;;;;5114367;28;20035;-73
2022/11/28 06:48:50;;;;;;;7.13;4.18;;;8.70;95.50;;;;;;5114155;28;20032;-73
2022/11/28 06:51:17;;;;;;;8.90;4.57;;;8.70;95.60;;;;;;5114121;28;20020;-73
2022/11/28 06:53:43;;;;;;;9.02;4.68;;;8.70;95.50;;;;;;5113194;28;20027;-73
2022/11/28 06:56:12;;;;;;;9.00;4.28;;;8.70;95.60;;;;;;5114109;28;20117;-73
2022/11/28 06:58:38;;;;;;;7.35;4.63;;;8.70;95.60;;;;;;5114043;28;20040;-73
2022/11/28 07:01:06;;;;;;;8.27;3.95;;;8.70;95.60;;;;;;5113115;28;20028;-73
2022/11/28 07:03:32;;;;;;;7.65;3.92;;;8.70;95.70;;;;;;5113931;28;20021;-73
2022/11/28 07:06:00;;;;;;;8.45;4.57;;;8.70;95.70;;;;;;5113956;28;20099;-73
2022/11/28 07:08:26;;;;;;;7.55;4.22;;;8.70;95.80;;;;;;5113750;28;20024;-73
2022/11/28 07:10:51;;;;;;;8.32;3.92;;;8.70;95.80;;;;;;5113788;28;20115;-73
2022/11/28 07:13:17;;;;;;;7.75;4.35;;;8.70;95.80;;;;;;5113813;28;20031;-73
2022/11/28 07:15:52;;;;;;;9.43;4.72;;;8.70;95.80;;;;;;5113046;28;20084;-73
2022/11/28 07:18:18;;;;;;;7.30;4.47;;;8.70;95.70;;;;;;5095925;28;20035;-73
2022/11/28 07:20:43;;;;;;;7.25;3.95;;;8.80;95.70;;;;;;5095697;28;20028;-74
2022/11/28 07:23:09;;;;;;;7.55;4.30;;;8.80;95.70;;;;;;5113699;28;20040;-73
2022/11/28 07:25:34;;;;;;;6.47;3.78;;;8.80;95.70;;;;;;5113683;28;20051;-73
2022/11/28 07:28:00;;;;;;;6.65;4.10;;;8.80;95.70;;;;;;5113621;28;20028;-73
2022/11/28 07:30:25;;;;;;;8.05;4.60;;;8.80;95.70;;;;;;5112505;28;20019;-73
2022/11/28 07:32:51;;;;;;;9.75;5.60;;;8.70;95.70;;;;;;5113583;28;20024;-73
2022/11/28 07:35:17;;;;;;;7.90;4.82;;;8.70;95.80;;;;;;5113575;28;20028;-73
2022/11/28 07:37:42;;;;;;;7.15;4.05;;;8.70;95.80;;;;;;5111805;28;20028;-73
2022/11/28 07:40:08;;;;;;;7.50;4.38;;;8.70;95.80;;;;;;5113494;28;20024;-73
2022/11/28 07:42:34;;;;;;;8.40;3.97;;;8.70;95.90;;;;;;5112420;28;20036;-73
2022/11/28 07:45:00;;;;;;;8.40;4.57;;;8.80;95.80;;;;;;5113448;28;20035;-73
2022/11/28 07:47:25;;;;;;;8.15;4.07;;;8.80;95.80;;;;;;5112427;28;20028;-73
2022/11/28 07:49:51;;;;;;;8.55;4.50;;;8.80;95.70;;;;;;5112439;28;20027;-72
2022/11/28 07:52:17;;;;;;;9.75;4.68;;;8.80;96.20;;;;;;5112429;28;20510;-73
2022/11/28 07:54:42;;;;;;;7.30;3.88;;;8.80;95.80;;;;;;5113368;28;20016;-73
2022/11/28 07:57:08;;;;;;;7.60;4.55;;;8.80;95.90;;;;;;5112406;28;20387;-73
2022/11/28 07:59:33;;;;;;;7.63;4.38;;;8.80;95.90;;;;;;5112395;28;20036;-73
2022/11/28 08:01:59;;;;;;;7.13;4.18;;;8.80;95.80;;;;;;5113291;28;20028;-73
2022/11/28 08:04:24;;;;;;;9.07;4.78;;;8.80;95.80;;;;;;5113251;28;20029;-73
2022/11/28 08:06:50;;;;;;;9.07;4.97;;;8.80;95.70;;;;;;5112244;28;20028;-73
2022/11/28 08:09:16;;;;;;;7.32;3.92;;;8.90;95.70;;;;;;5112182;28;20119;-73
2022/11/28 08:11:41;;;;;;;9.02;5.43;;;8.80;95.60;;;;;;5112269;28;20031;-73
2022/11/28 08:14:08;;;;;;;8.95;4.70;;;8.80;95.70;;;;;;5112288;28;20031;-73
2022/11/28 08:16:33;;;;;;;7.30;4.63;;;8.90;95.70;;;;;;5113161;28;20024;-73
2022/11/28 08:19:00;;;;;;;8.98;4.55;;;8.90;95.60;;;;;;5113159;28;20029;-73
2022/11/28 08:21:31;;;;;;;7.20;4.47;;;8.90;95.60;;;;;;5112822;28;20032;-73
2022/11/28 08:23:59;;;;;;;9.20;4.57;;;8.90;95.60;;;;;;5113127;28;20088;-73
2022/11/28 08:26:27;;;;;;;7.47;4.22;;;8.80;95.60;;;;;;5113072;28;20036;-73
2022/11/28 08:28:53;;;;;;;9.32;4.45;;;8.90;95.60;;;;;;5112052;28;20026;-73
2022/11/28 08:31:24;;;;;;;6.90;4.38;;;8.80;95.60;;;;;;5112970;28;20032;-73
2022/11/28 08:33:51;;;;;;;9.05;4.65;;;8.90;95.70;;;;;;5113038;28;20032;-73
2022/11/28 08:36:18;;;;;;;7.60;4.00;;;8.90;95.70;;;;;;5113002;28;20016;-73
2022/11/28 08:38:45;;;;;;;7.55;4.50;;;8.90;95.70;;;;;;5112970;28;20080;-73
2022/11/28 08:41:13;;;;;;;7.28;4.18;;;8.90;95.70;;;;;;5112934;28;20028;-72
2022/11/28 08:43:39;;;;;;;8.70;4.78;;;8.90;95.60;;;;;;5111952;28;20030;-73
2022/11/28 08:46:09;;;;;;;5.80;3.28;;;8.90;95.60;;;;;;5112877;28;20028;-73
2022/11/28 08:48:35;;;;;;;8.10;4.43;;;8.90;95.60;;;;;;5114032;28;20031;-72
2022/11/28 08:51:01;;;;;;;7.95;4.43;;;8.90;95.70;;;;;;5115503;28;20032;-72
2022/11/28 08:53:27;;;;;;;8.30;4.97;;;8.90;95.70;;;;;;5116606;28;20025;-73
2022/11/28 08:55:53;;;;;;;10.32;4.70;;;8.90;95.60;;;;;;5116414;28;20024;-73
2022/11/28 08:58:18;;;;;;;8.60;5.25;;;8.90;96.00;;;;;;5116317;28;20079;-73
2022/11/28 09:00:44;;;;;;;8.88;5.03;;;8.90;95.60;;;;;;5116301;28;20039;-73
2022/11/28 09:03:15;;;;;;;12.25;5.85;;;8.90;95.60;;;;;;5115383;28;20036;-73
2022/11/28 09:05:44;;;;;;;8.05;4.80;;;8.90;95.60;;;;;;5116252;28;20020;-73
2022/11/28 09:08:09;;;;;;;9.38;4.75;;;8.90;95.70;;;;;;5116106;28;20024;-73
2022/11/28 09:10:36;;;;;;;7.53;4.40;;;8.90;95.70;;;;;;5115102;28;20036;-73
2022/11/28 09:13:03;;;;;;;8.38;5.00;;;8.90;95.80;;;;;;5116064;28;20016;-73
2022/11/28 09:15:29;;;;;;;7.47;4.13;;;8.90;95.80;;;;;;5116065;28;20024;-73
2022/11/28 09:17:54;;;;;;;8.02;4.53;;;8.90;95.80;;;;;;5115105;28;20475;-73
2022/11/28 09:20:20;;;;;;;8.23;4.32;;;9.00;95.80;;;;;;5098210;28;20028;-73
2022/11/28 09:22:46;;;;;;;10.85;5.47;;;9.00;95.70;;;;;;5115745;28;20040;-73
2022/11/28 09:25:13;;;;;;;9.13;4.65;;;9.00;95.60;;;;;;5115843;28;20054;-73
2022/11/28 09:27:39;;;;;;;8.60;4.80;;;9.00;95.60;;;;;;5115806;28;20044;-73
2022/11/28 09:30:06;;;;;;;7.40;4.18;;;9.00;95.60;;;;;;5115706;28;20086;-73
2022/11/28 09:32:32;;;;;;;8.93;5.30;;;9.10;95.50;;;;;;5114688;28;20024;-73
2022/11/28 09:34:57;;;;;;;8.07;4.63;;;9.00;95.40;;;;;;5115676;28;20046;-73
2022/11/28 09:37:23;;;;;;;7.65;4.60;;;9.00;95.50;;;;;;5115634;28;20437;-73
2022/11/28 09:39:50;;;;;;;7.57;4.35;;;9.10;95.60;;;;;;5097677;28;20035;-73
2022/11/28 09:42:33;;;;;;;9.45;4.75;;;9.10;95.50;;;;;;5115516;28;20032;-73
2022/11/28 09:45:06;;;;;;;9.43;4.95;;;9.10;95.40;;;;;;5115508;28;20024;-73
2022/11/28 09:47:35;;;;;;;12.10;4.90;;;9.10;95.50;;;;;;5114078;28;20036;-73
2022/11/28 09:50:14;;;;;;;8.95;4.90;;;9.10;95.40;;;;;;5115267;28;20016;-73
2022/11/28 09:52:56;;;;;;;11.98;4.82;;;9.10;95.50;;;;;;5115377;28;20016;-73
2022/11/28 09:55:32;;;;;;;9.48;4.78;;;9.10;95.50;;;;;;5114307;28;20087;-73
2022/11/28 09:58:01;;;;;;;7.50;4.30;;;9.10;95.60;;;;;;5115178;28;20031;-73
2022/11/28 10:00:37;;;;;;;9.15;4.97;;;9.10;95.70;;;;;;5114564;28;20485;-73
2022/11/28 10:03:35;;;;;;;9.15;4.90;;;9.10;95.70;;;;;;5115136;28;20027;-73
2022/11/28 10:06:05;;;;;;;10.15;5.43;;;9.20;95.70;;;;;;5087078;28;20044;-72
2022/11/28 10:08:54;;;;;;;8.32;5.25;;;9.20;95.60;;;;;;5114963;28;20054;-73
2022/11/28 10:11:47;;;;;;;12.52;6.05;;;9.20;95.60;;;;;;5114919;28;20039;-73
2022/11/28 10:14:34;;;;;;;8.75;4.97;;;9.20;95.60;;;;;;5114898;28;20016;-73
2022/11/28 10:17:37;;;;;;;9.98;5.22;;;9.30;95.70;;;;;;5113821;28;20035;-73
2022/11/28 10:20:27;;;;;;;9.00;5.45;;;9.30;95.70;;;;;;5114769;28;20054;-73
2022/11/28 10:23:10;;;;;;;8.85;4.93;;;9.30;95.60;;;;;;5114576;28;20060;-72
2022/11/28 10:25:41;;;;;;;10.75;5.35;;;9.30;95.50;;;;;;5114743;28;20039;-73
2022/11/28 10:28:15;;;;;;;11.38;5.22;;;9.30;95.50;;;;;;5114667;28;20035;-73
2022/11/28 10:30:46;;;;;;;10.27;5.45;;;9.30;95.50;;;;;;5113531;28;20016;-73
2022/11/28 10:33:27;;;;;;;12.27;6.45;;;9.30;95.50;;;;;;5114582;28;20044;-72
2022/11/28 10:35:56;;;;;;;13.80;6.47;;;9.40;95.50;;;;;;5114653;28;20016;-73
2022/11/28 10:38:26;;;;;;;12.13;6.43;;;9.40;95.90;;;;;;5114432;28;20068;-72
2022/11/28 10:41:03;;;;;;;13.20;6.72;;;9.40;95.50;;;;;;5114422;28;20083;-73
2022/11/28 10:43:58;;;;;;;13.52;6.68;;;9.50;95.50;;;;;;5114531;28;20020;-73
2022/11/28 10:46:36;;;;;;;11.75;6.18;;;9.50;95.40;;;;;;5114481;28;20032;-72
2022/11/28 10:49:19;;;;;;;11.85;6.15;;;9.60;95.30;;;;;;5113233;28;20016;-73
2022/11/28 10:52:06;;;;;;;11.10;6.05;;;9.60;95.40;;;;;;5113076;28;20028;-73
2022/11/28 10:54:59;;;;;;;15.52;6.28;;;9.60;95.30;;;;;;5113231;28;20031;-73
2022/11/28 10:57:41;;;;;;;12.18;5.80;;;9.70;95.30;;;;;;5076665;28;20024;-73
2022/11/28 11:00:12;;;;;;;10.02;4.88;;;9.70;95.20;;;;;;5114276;28;20035;-73
2022/11/28 11:02:53;;;;;;;12.25;5.20;;;9.70;95.20;;;;;;5113093;28;20024;-73
2022/11/28 11:05:26;;;;;;;9.45;5.18;;;9.60;95.20;;;;;;5112952;28;20031;-73
2022/11/28 11:07:57;;;;;;;11.45;5.47;;;9.60;95.20;;;;;;5113908;28;20077;-72
2022/11/28 11:10:28;;;;;;;10.93;5.25;;;9.60;95.40;;;;;;5113999;28;20031;-73
2022/11/28 11:12:54;;;;;;;11.10;5.53;;;9.60;95.40;;;;;;5113136;28;20024;-73
2022/11/28 11:15:32;;;;;;;10.43;5.45;;;9.60;95.50;;;;;;5113949;28;20028;-73
2022/11/28 11:18:03;;;;;;;11.00;5.97;;;9.60;95.50;;;;;;5113837;28;20080;-73
2022/11/28 11:20:33;;;;;;;11.02;5.70;;;9.60;95.50;;;;;;5113800;28;20072;-73
2022/11/28 11:23:17;;;;;;;10.52;5.53;;;9.70;95.50;;;;;;5113596;28;20055;-73
2022/11/28 11:25:51;;;;;;;10.27;5.00;;;9.70;95.50;;;;;;5113863;28;20039;-73
2022/11/28 11:28:28;;;;;;;9.07;5.05;;;9.70;95.50;;;;;;5113708;28;20032;-73
2022/11/28 11:31:03;;;;;;;8.50;4.70;;;9.70;95.50;;;;;;5113542;28;20024;-73
2022/11/28 11:33:35;;;;;;;10.20;5.10;;;9.70;95.50;;;;;;5113596;28;20535;-73
2022/11/28 11:36:03;;;;;;;10.40;5.55;;;9.70;95.50;;;;;;5113716;28;20095;-73
2022/11/28 11:38:33;;;;;;;10.95;5.00;;;9.70;95.50;;;;;;5113562;28;20078;-73
2022/11/28 11:41:35;;;;;;;8.93;4.95;;;9.70;95.60;;;;;;5113532;28;20021;-73
2022/11/28 11:44:13;;;;;;;7.43;4.53;;;9.70;95.60;;;;;;5095648;28;20047;-73
2022/11/28 11:47:02;;;;;;;10.23;5.43;;;9.80;95.70;;;;;;5113450;28;20080;-73
2022/11/28 11:49:48;;;;;;;12.02;5.35;;;9.70;95.70;;;;;;5113510;28;20026;-73
2022/11/28 11:52:22;;;;;;;9.77;4.97;;;9.70;95.80;;;;;;5112562;28;20107;-72
2022/11/28 11:55:09;;;;;;;11.00;6.30;;;9.80;95.70;;;;;;5112697;28;20052;-73
2022/11/28 11:57:38;;;;;;;10.23;5.35;;;9.80;95.80;;;;;;5113448;28;20023;-73
2022/11/28 12:00:06;;;;;;;10.82;5.32;;;9.80;95.70;;;;;;5113326;28;20080;-73
2022/11/28 12:02:36;;;;;;;9.98;5.50;;;9.80;95.90;;;;;;5113160;28;20024;-73
2022/11/28 12:05:09;;;;;;;10.02;5.55;;;9.80;96.00;;;;;;5113345;28;20027;-73
2022/11/28 12:08:04;;;;;;;13.27;5.78;;;9.70;96.10;;;;;;5113276;28;20028;-73
2022/11/28 12:10:34;;;;;;;13.15;6.05;;;9.80;96.10;;;;;;5102153;28;20048;-73
2022/11/28 12:13:03;;;;;;;13.57;6.05;;;9.80;96.10;;;;;;5112316;28;20027;-73
2022/11/28 12:16:08;;;;;;;12.82;6.47;;;9.80;96.10;;;;;;5113205;28;20028;-73
2022/11/28 12:19:01;;;;;;;11.13;5.60;;;9.90;96.10;;;;;;5113227;28;20028;-73
2022/11/28 12:21:42;;;;;;;;;;;9.90;96.00;;;;;;5112419;28;20048;-73
2022/11/28 12:24:11;;;;;;;11.18;5.43;;;9.90;96.10;;;;;;5114219;28;19904;-73
2022/11/28 12:27:08;;;;;;;12.80;5.80;;;9.90;96.00;;;;;;5116037;28;20038;-73
2022/11/28 12:29:40;;;;;;;12.43;5.88;;;10.00;96.00;;;;;;5116914;28;20036;-73
2022/11/28 12:32:15;;;;;;;;;;;10.00;95.80;;;;;;5117335;28;20024;-73
2022/11/28 12:34:40;;;;;;;10.48;5.28;;;10.00;95.70;;;;;;5116841;28;19911;-73
2022/11/28 12:37:32;;;;;;;16.65;6.95;;;10.10;96.20;;;;;;5116811;28;20047;-73
2022/11/28 12:40:35;;;;;;;12.55;5.72;;;10.10;95.80;;;;;;5116913;28;20032;-73
2022/11/28 12:43:29;;;;;;;14.40;6.53;;;10.10;95.70;;;;;;5116837;28;20081;-72
2022/11/28 12:46:11;;;;;;;14.70;6.60;;;10.20;95.60;;;;;;5116646;28;20042;-73
2022/11/28 12:48:57;;;;;;;13.15;6.22;;;10.20;95.60;;;;;;5116664;28;20024;-73
2022/11/28 12:51:37;;;;;;;15.55;6.20;;;10.20;95.60;;;;;;5116500;28;20028;-73
2022/11/28 12:54:37;;;;;;;16.42;7.15;;;10.20;95.60;;;;;;5116507;28;20433;-73
2022/11/28 12:57:26;;;;;;;23.30;13.00;;;10.20;95.60;;;;;;5116624;28;20016;-72
2022/11/28 13:00:03;;;;;;;25.52;10.30;;;10.30;95.50;;;;;;5116388;28;20044;-73
2022/11/28 13:02:49;;;;;;;20.40;7.85;;;10.30;95.40;;;;;;5115373;28;20096;-73
2022/11/28 13:05:40;;;;;;;19.58;8.57;;;10.30;95.40;;;;;;5116325;28;20021;-73
2022/11/28 13:08:12;;;;;;;19.58;9.10;;;10.30;95.30;;;;;;5116181;28;20044;-73
2022/11/28 13:11:19;;;;;;;24.40;9.37;;;10.30;95.30;;;;;;5116133;28;20028;-73
2022/11/28 13:14:02;;;;;;;22.48;10.27;;;10.30;95.30;;;;;;5116329;28;20314;-73
2022/11/28 13:16:46;;;;;;;22.00;9.63;;;10.30;95.40;;;;;;5116218;28;20024;-73
2022/11/28 13:19:48;;;;;;;26.50;11.50;;;10.30;95.30;;;;;;5116053;28;20021;-72
2022/11/28 13:22:24;;;;;;;46.97;20.75;;;10.40;95.30;;;;;;5114904;28;20076;-72
2022/11/28 13:25:15;;;;;;;32.40;14.13;;;10.40;95.30;;;;;;5115874;28;20027;-73